Accomac, Pennsylvania
Current Conditions -  °F | °C
As of 8:56 AM on Wednesday 28 Jan 2015 (Local Time) from KMDT Reporting Station
Few Clouds Few Clouds  
Wind Chill:   Ceiling: Unl
Heat Index: 20°   Visibility: 10mi
Dew Point:   Wind: 16mph
Humidity: 48%   Direction: 310°NW
Pressure: 30.19"   Gusts: NA
Location:  40.0152°N, 76.5974°W
Report Text: KMDT 281356Z 31014KT 10SM FEW250 M07/M16 A3019 RMK AO2 SLP228 T10671161
Loading
Personal Weather Stations






























Interactive Weather Map New forecast layout! Learn more

10-Day Weather Forecast

Advertisements
Track Severe Weather on mobile